createdAt,value
2018-04-14T00:00:01.733Z,12.54
2018-04-14T00:01:01.554Z,12.55
2018-04-14T00:02:01.544Z,12.59
2018-04-14T00:03:01.377Z,12.62
2018-04-14T00:04:01.357Z,12.59
2018-04-14T00:05:01.221Z,12.69
2018-04-14T00:06:01.297Z,12.67
2018-04-14T00:07:01.069Z,12.74
2018-04-14T00:08:01.082Z,12.71
2018-04-14T00:09:01.029Z,12.67
2018-04-14T00:10:00.879Z,12.63
2018-04-14T00:11:00.770Z,12.58
2018-04-14T00:12:00.817Z,12.59
2018-04-14T00:13:00.592Z,12.58
2018-04-14T00:14:00.605Z,12.56
2018-04-14T00:15:00.425Z,12.61
2018-04-14T00:16:00.452Z,12.56
2018-04-14T00:17:00.275Z,12.58
2018-04-14T00:18:00.317Z,12.54
2018-04-14T00:19:00.116Z,12.63
2018-04-14T00:20:00.131Z,12.63
2018-04-14T00:20:59.976Z,12.61
2018-04-14T00:21:59.974Z,12.56
2018-04-14T00:22:59.800Z,12.58
2018-04-14T00:23:59.754Z,12.54
2018-04-14T00:24:59.647Z,12.56
2018-04-14T00:25:59.652Z,12.49
2018-04-14T00:26:59.497Z,12.59
2018-04-14T00:27:59.471Z,12.49
2018-04-14T00:28:59.315Z,12.44
2018-04-14T00:29:59.376Z,12.61
2018-04-14T00:30:59.174Z,12.55
2018-04-14T00:31:59.221Z,12.54
2018-04-14T00:32:58.999Z,12.56
2018-04-14T00:33:58.988Z,12.56
2018-04-14T00:34:58.836Z,12.61
2018-04-14T00:35:58.801Z,12.61
2018-04-14T00:36:58.687Z,12.69
2018-04-14T00:37:58.738Z,12.69
2018-04-14T00:38:58.527Z,12.52
2018-04-14T00:39:58.457Z,12.71
2018-04-14T00:40:58.375Z,12.61
2018-04-14T00:41:58.428Z,12.61
2018-04-14T00:42:58.229Z,12.58
2018-04-14T00:43:58.238Z,12.58
2018-04-14T00:44:58.138Z,12.56
2018-04-14T00:45:58.044Z,12.62
2018-04-14T00:46:57.887Z,12.56
2018-04-14T00:47:58.001Z,12.63
2018-04-14T00:48:57.728Z,12.58
2018-04-14T00:49:59.714Z,12.63
2018-04-14T00:50:57.569Z,12.58
2018-04-14T00:51:57.581Z,12.55
2018-04-14T00:52:57.440Z,12.56
2018-04-14T00:53:57.382Z,12.59
2018-04-14T00:54:57.263Z,12.69
2018-04-14T00:55:57.306Z,12.61
2018-04-14T00:56:57.112Z,12.74
2018-04-14T00:57:57.133Z,12.71
2018-04-14T00:58:56.941Z,12.76
2018-04-14T00:59:56.914Z,12.70
2018-04-14T01:00:56.775Z,12.76
2018-04-14T01:01:56.823Z,12.73
2018-04-14T01:02:56.622Z,12.73
2018-04-14T01:03:56.659Z,12.69
2018-04-14T01:04:56.475Z,12.66
2018-04-14T01:05:56.436Z,12.76
2018-04-14T01:06:56.302Z,12.69
2018-04-14T01:07:56.386Z,12.59
2018-04-14T01:08:56.166Z,12.58
2018-04-14T01:09:56.167Z,12.59
2018-04-14T01:10:55.992Z,12.69
2018-04-14T01:11:55.982Z,12.52
2018-04-14T01:12:55.828Z,12.74
2018-04-14T01:13:55.805Z,12.55
2018-04-14T01:14:55.702Z,12.61
2018-04-14T01:15:55.691Z,12.61
2018-04-14T01:16:55.515Z,12.66
2018-04-14T01:17:55.512Z,12.61
2018-04-14T01:18:55.376Z,12.49
2018-04-14T01:19:55.410Z,12.44
2018-04-14T01:20:55.196Z,12.49
2018-04-14T01:21:55.215Z,12.40
2018-04-14T01:22:55.034Z,12.40
2018-04-14T01:23:55.053Z,12.37
2018-04-14T01:24:54.886Z,12.31
2018-04-14T01:25:54.936Z,12.38
2018-04-14T01:26:54.725Z,12.44
2018-04-14T01:27:54.737Z,12.40
2018-04-14T01:28:54.561Z,12.31
2018-04-14T01:29:54.577Z,12.26
2018-04-14T01:30:54.398Z,12.30
2018-04-14T01:31:54.370Z,12.26
2018-04-14T01:32:54.248Z,12.37
2018-04-14T01:33:54.270Z,12.33
2018-04-14T01:34:54.113Z,12.38
2018-04-14T01:35:54.092Z,12.40
2018-04-14T01:36:53.929Z,12.36
2018-04-14T01:37:53.995Z,12.41
2018-04-14T01:38:53.777Z,12.38
2018-04-14T01:39:53.837Z,12.41
2018-04-14T01:40:53.665Z,12.48
2018-04-14T01:41:53.615Z,12.43
2018-04-14T01:42:53.452Z,12.38
2018-04-14T01:43:53.408Z,12.37
2018-04-14T01:44:53.291Z,12.34
2018-04-14T01:45:53.363Z,12.31
2018-04-14T01:46:53.141Z,12.33
2018-04-14T01:47:53.129Z,12.34
2018-04-14T01:48:52.983Z,12.37
2018-04-14T01:49:52.944Z,12.33
2018-04-14T01:50:52.839Z,12.41
2018-04-14T01:51:52.852Z,12.38
2018-04-14T01:52:52.673Z,12.38
2018-04-14T01:53:52.759Z,12.52
2018-04-14T01:54:52.501Z,12.58
2018-04-14T01:55:52.500Z,12.61
2018-04-14T01:56:52.340Z,12.58
2018-04-14T01:57:52.380Z,12.66
2018-04-14T01:58:52.178Z,12.62
2018-04-14T01:59:52.190Z,12.61
2018-04-14T02:00:52.054Z,12.62
2018-04-14T02:01:51.993Z,12.58
2018-04-14T02:02:51.857Z,12.61
2018-04-14T02:03:51.905Z,12.62
2018-04-14T02:04:51.698Z,12.61
2018-04-14T02:05:51.746Z,12.56
2018-04-14T02:06:51.541Z,12.61
2018-04-14T02:07:51.522Z,12.58
2018-04-14T02:08:51.385Z,12.63
2018-04-14T02:09:51.459Z,12.58
2018-04-14T02:10:51.272Z,12.59
2018-04-14T02:11:51.246Z,12.61
2018-04-14T02:12:51.070Z,12.55
2018-04-14T02:13:51.054Z,12.59
2018-04-14T02:14:50.919Z,12.61
2018-04-14T02:15:50.886Z,12.66
2018-04-14T02:16:50.811Z,12.69
2018-04-14T02:17:50.792Z,12.62
2018-04-14T02:18:50.585Z,12.73
2018-04-14T02:21:32.896Z,12.67
2018-04-14T02:22:32.887Z,12.56
2018-04-14T02:23:32.725Z,12.58
2018-04-14T02:24:32.690Z,12.63
2018-04-14T02:25:32.575Z,12.61
2018-04-14T02:26:32.948Z,12.62
2018-04-14T02:27:32.422Z,12.62
2018-04-14T02:30:14.373Z,12.74
2018-04-14T02:31:14.404Z,12.71
2018-04-14T02:32:14.233Z,12.66
2018-04-14T02:33:14.232Z,12.67
2018-04-14T02:34:14.056Z,12.77
2018-04-14T02:35:14.029Z,12.76
2018-04-14T02:36:13.935Z,12.69
2018-04-14T02:37:13.970Z,12.67
2018-04-14T02:38:13.733Z,12.74
2018-04-14T02:39:13.794Z,12.73
2018-04-14T02:40:13.581Z,12.66
2018-04-14T02:41:13.557Z,12.70
2018-04-14T02:42:13.451Z,12.63
2018-04-14T02:43:13.470Z,12.70
2018-04-14T02:44:13.263Z,12.73
2018-04-14T02:45:13.269Z,12.69
2018-04-14T02:58:36.542Z,12.40
2018-04-14T02:59:35.901Z,12.44
2018-04-14T03:02:17.882Z,12.37
2018-04-14T03:03:17.934Z,12.33
2018-04-14T03:04:17.746Z,12.41
2018-04-14T03:05:17.718Z,12.41
2018-04-14T03:06:17.567Z,12.37
2018-04-14T03:07:17.514Z,12.38
2018-04-14T03:08:17.424Z,12.33
2018-04-14T03:09:17.422Z,12.30
2018-04-14T03:10:17.260Z,12.29
2018-04-14T03:11:17.233Z,12.30
2018-04-14T03:12:17.105Z,12.29
2018-04-14T03:13:17.123Z,12.30
2018-04-14T03:14:16.931Z,12.26
2018-04-14T03:15:16.993Z,12.29
2018-04-14T03:16:16.768Z,12.29
2018-04-14T03:17:16.765Z,12.33
2018-04-14T03:18:16.646Z,12.18
2018-04-14T03:19:16.585Z,12.19
2018-04-14T03:20:16.453Z,12.12
2018-04-14T03:21:16.712Z,12.16
2018-04-14T03:22:16.292Z,12.11
2018-04-14T03:23:16.291Z,12.04
2018-04-14T03:24:16.132Z,12.08
2018-04-14T03:25:16.093Z,12.05
2018-04-14T03:26:15.971Z,12.01
2018-04-14T03:27:16.987Z,12.03
2018-04-14T03:28:15.859Z,12.03
2018-04-14T03:29:15.815Z,12.05
2018-04-14T03:30:15.659Z,12.04
2018-04-14T03:31:15.674Z,12.07
2018-04-14T03:32:15.510Z,12.03
2018-04-14T03:33:15.534Z,12.07
2018-04-14T03:34:15.378Z,12.04
2018-04-14T03:35:15.344Z,12.01
2018-04-14T03:36:15.182Z,12.03
2018-04-14T03:37:15.205Z,11.98
2018-04-14T03:38:15.027Z,11.96
2018-04-14T03:39:15.059Z,11.97
2018-04-14T03:40:14.881Z,11.87
2018-04-14T03:41:14.990Z,11.78
2018-04-14T03:42:14.703Z,11.85
2018-04-14T03:43:14.673Z,11.87
2018-04-14T03:44:14.540Z,11.72
2018-04-14T03:45:14.514Z,11.66
2018-04-14T03:46:14.386Z,11.63
2018-04-14T03:47:14.920Z,11.64
2018-04-14T03:48:14.242Z,11.66
2018-04-14T03:49:14.211Z,11.60
2018-04-14T03:50:14.092Z,11.79
2018-04-14T03:51:14.121Z,11.84
2018-04-14T03:52:13.903Z,11.88
2018-04-14T03:53:13.923Z,11.94
2018-04-14T03:54:13.746Z,11.90
2018-04-14T03:55:13.767Z,11.94
2018-04-14T03:56:13.588Z,11.96
2018-04-14T03:57:13.540Z,12.05
2018-04-14T03:58:13.451Z,12.07
2018-04-14T03:59:13.454Z,12.08
2018-04-14T04:00:13.290Z,12.05
2018-04-14T04:01:13.368Z,12.21
2018-04-14T04:02:13.109Z,12.12
2018-04-14T04:03:13.071Z,12.11
2018-04-14T04:04:13.019Z,12.12
2018-04-14T04:05:13.011Z,12.19
2018-04-14T04:06:12.812Z,12.11
2018-04-14T04:07:12.788Z,12.07
2018-04-14T04:08:12.634Z,12.07
2018-04-14T04:09:12.603Z,12.15
2018-04-14T04:10:12.498Z,12.07
2018-04-14T04:11:12.514Z,12.11
2018-04-14T04:12:12.318Z,12.12
2018-04-14T04:13:12.324Z,12.13
2018-04-14T04:14:12.184Z,12.19
2018-04-14T04:15:12.127Z,12.05
2018-04-14T04:16:12.031Z,12.19
2018-04-14T04:17:12.044Z,12.16
2018-04-14T04:18:11.848Z,12.15
2018-04-14T04:19:11.838Z,12.18
2018-04-14T04:20:11.691Z,12.07
2018-04-14T04:21:11.689Z,12.16
2018-04-14T04:22:11.527Z,12.22
2018-04-14T04:23:11.557Z,12.15
2018-04-14T04:24:11.371Z,12.08
2018-04-14T04:25:11.378Z,12.11
2018-04-14T04:26:11.224Z,12.12
2018-04-14T04:27:11.181Z,12.15
2018-04-14T04:28:11.074Z,12.19
2018-04-14T04:29:11.095Z,12.26
2018-04-14T04:30:10.897Z,12.26
2018-04-14T04:31:10.939Z,12.22
2018-04-14T04:32:10.743Z,12.23
2018-04-14T04:33:10.707Z,12.30
2018-04-14T04:34:10.578Z,12.26
2018-04-14T04:35:10.628Z,12.23
2018-04-14T04:36:10.416Z,12.23
2018-04-14T04:37:10.469Z,12.26
2018-04-14T04:38:10.259Z,12.21
2018-04-14T04:39:10.240Z,12.29
2018-04-14T04:40:10.192Z,12.22
2018-04-14T04:41:10.141Z,12.22
2018-04-14T04:42:09.964Z,12.25
2018-04-14T04:43:10.080Z,12.21
2018-04-14T04:44:09.784Z,12.30
2018-04-14T04:45:09.759Z,12.38
2018-04-14T04:46:09.632Z,12.49
2018-04-14T04:47:09.597Z,12.61
2018-04-14T04:48:09.476Z,12.73
2018-04-14T04:49:09.490Z,12.80
2018-04-14T04:50:09.316Z,12.81
2018-04-14T04:51:09.283Z,12.81
2018-04-14T04:52:09.179Z,12.70
2018-04-14T04:53:09.199Z,12.62
2018-04-14T04:54:09.061Z,12.61
2018-04-14T04:55:09.071Z,12.58
2018-04-14T04:56:08.833Z,12.51
2018-04-14T04:57:08.858Z,12.52
2018-04-14T04:58:08.685Z,12.43
2018-04-14T04:59:08.734Z,12.38
2018-04-14T05:00:08.528Z,12.43
2018-04-14T05:01:08.533Z,12.43
2018-04-14T05:02:08.387Z,12.37
2018-04-14T05:03:08.384Z,12.37
2018-04-14T05:04:08.198Z,12.36
2018-04-14T05:05:08.152Z,12.36
2018-04-14T05:06:08.039Z,12.37
2018-04-14T05:07:08.064Z,12.40
2018-04-14T05:08:07.908Z,12.44
2018-04-14T05:09:07.869Z,12.41
2018-04-14T05:10:07.726Z,12.41
2018-04-14T05:11:07.684Z,12.40
2018-04-14T05:12:07.573Z,12.33
2018-04-14T05:13:07.627Z,12.30
2018-04-14T05:14:07.411Z,12.30
2018-04-14T05:15:07.400Z,12.25
2018-04-14T05:16:07.252Z,12.30
2018-04-14T05:17:07.206Z,12.21
2018-04-14T05:18:07.126Z,12.15
2018-04-14T05:19:07.134Z,12.22
2018-04-14T05:20:06.944Z,12.26
2018-04-14T05:21:06.932Z,12.31
2018-04-14T05:22:06.785Z,12.30
2018-04-14T05:23:06.783Z,12.26
2018-04-14T05:24:06.659Z,12.26
2018-04-14T05:25:06.652Z,12.33
2018-04-14T05:26:06.463Z,12.43
2018-04-14T05:27:06.452Z,12.36
2018-04-14T05:28:06.318Z,12.25
2018-04-14T05:29:06.309Z,12.25
2018-04-14T05:30:06.146Z,12.26
2018-04-14T05:31:06.186Z,12.30
2018-04-14T05:32:05.978Z,12.22
2018-04-14T05:33:05.986Z,12.21
2018-04-14T05:34:05.851Z,12.16
2018-04-14T05:35:05.793Z,12.05
2018-04-14T05:36:05.668Z,12.04
2018-04-14T05:37:05.699Z,12.04
2018-04-14T05:38:05.502Z,12.01
2018-04-14T05:39:05.534Z,12.07
2018-04-14T05:40:05.348Z,12.00
2018-04-14T05:41:05.328Z,12.01
2018-04-14T05:42:05.190Z,12.08
2018-04-14T05:43:05.233Z,12.04
2018-04-14T05:44:05.028Z,12.04
2018-04-14T05:45:05.076Z,12.00
2018-04-14T05:46:05.070Z,12.05
2018-04-14T05:47:04.911Z,12.00
2018-04-14T05:48:04.710Z,12.13
2018-04-14T05:49:04.812Z,12.15
2018-04-14T05:50:04.557Z,12.12
2018-04-14T05:51:04.571Z,12.13
2018-04-14T05:52:04.406Z,12.21
2018-04-14T05:53:04.373Z,12.30
2018-04-14T05:54:04.242Z,12.36
2018-04-14T05:55:04.214Z,12.34
2018-04-14T05:56:04.086Z,12.34
2018-04-14T05:57:04.097Z,12.38
2018-04-14T05:58:03.912Z,12.41
2018-04-14T05:59:03.897Z,12.51
2018-04-14T06:00:03.780Z,12.52
2018-04-14T06:01:03.810Z,12.63
2018-04-14T06:02:03.615Z,12.73
2018-04-14T06:03:03.617Z,12.70
2018-04-14T06:04:03.441Z,12.81
2018-04-14T06:05:03.470Z,12.73
2018-04-14T06:06:03.291Z,12.67
2018-04-14T06:07:03.256Z,12.69
2018-04-14T06:08:03.135Z,12.69
2018-04-14T06:09:03.198Z,12.73
2018-04-14T06:10:02.970Z,12.69
2018-04-14T06:11:02.988Z,12.67
2018-04-14T06:12:02.909Z,12.80
2018-04-14T06:13:02.773Z,12.87
2018-04-14T06:14:02.647Z,12.91
2018-04-14T06:15:02.690Z,12.98
2018-04-14T06:16:02.505Z,12.98
2018-04-14T06:17:02.501Z,12.96
2018-04-14T06:18:02.330Z,13.04
2018-04-14T06:19:02.301Z,13.10
2018-04-14T06:20:02.180Z,13.21
2018-04-14T06:21:02.235Z,12.99
2018-04-14T06:22:02.023Z,13.13
2018-04-14T06:23:02.010Z,13.25
2018-04-14T06:24:01.915Z,13.29
2018-04-14T06:25:01.932Z,13.35
2018-04-14T06:26:01.730Z,13.43
2018-04-14T06:27:01.740Z,13.50
2018-04-14T06:28:02.501Z,13.54
2018-04-14T06:29:01.546Z,13.68
2018-04-14T06:30:01.394Z,13.72
2018-04-14T06:31:01.396Z,13.93
2018-04-14T06:32:01.230Z,13.99
2018-04-14T06:33:01.264Z,14.17
2018-04-14T06:34:01.065Z,14.34
2018-04-14T06:35:01.074Z,14.57
2018-04-14T06:36:00.926Z,14.64
2018-04-14T06:37:00.921Z,14.57
2018-04-14T06:38:00.762Z,14.44
2018-04-14T06:39:00.829Z,14.21
2018-04-14T06:40:00.606Z,14.64
2018-04-14T06:41:00.602Z,14.69
2018-04-14T06:42:00.480Z,14.64
2018-04-14T06:43:00.403Z,14.44
2018-04-14T06:44:00.285Z,14.31
2018-04-14T06:45:00.367Z,14.38
2018-04-14T06:46:00.137Z,14.21
2018-04-14T06:47:00.373Z,14.26
2018-04-14T06:47:59.987Z,14.26
2018-04-14T06:49:00.445Z,14.23
2018-04-14T06:49:59.836Z,14.35
2018-04-14T06:50:59.904Z,14.34
2018-04-14T06:51:59.671Z,14.27
2018-04-14T06:52:59.651Z,14.29
2018-04-14T06:53:59.911Z,14.67
2018-04-14T06:54:59.460Z,14.87
2018-04-14T06:55:59.350Z,15.22
2018-04-14T06:56:59.402Z,15.40
2018-04-14T06:57:59.215Z,15.40
2018-04-14T06:58:59.220Z,15.51
2018-04-14T06:59:59.025Z,15.23
2018-04-14T07:00:58.991Z,15.27
2018-04-14T07:01:58.863Z,15.35
2018-04-14T07:02:58.900Z,15.40
2018-04-14T07:03:58.727Z,14.94
2018-04-14T07:04:58.713Z,15.04
2018-04-14T07:05:58.581Z,15.05
2018-04-14T07:06:58.533Z,14.75
2018-04-14T07:07:58.410Z,14.64
2018-04-14T07:08:58.483Z,14.97
2018-04-14T07:09:58.267Z,15.55
2018-04-14T07:10:58.240Z,16.10
2018-04-14T07:11:58.091Z,16.17
2018-04-14T07:12:58.176Z,16.47
2018-04-14T07:13:57.952Z,16.87
2018-04-14T07:14:58.000Z,17.20
2018-04-14T07:15:57.866Z,17.51
2018-04-14T07:16:57.766Z,17.89
2018-04-14T07:17:57.626Z,18.19
2018-04-14T07:18:57.615Z,18.11
2018-04-14T07:19:57.488Z,17.99
2018-04-14T07:20:57.479Z,18.10
2018-04-14T07:21:57.311Z,18.39
2018-04-14T07:22:57.292Z,18.68
2018-04-14T07:23:57.248Z,19.07
2018-04-14T07:24:57.202Z,18.74
2018-04-14T07:25:57.007Z,18.02
2018-04-14T07:26:57.017Z,18.21
2018-04-14T07:27:56.862Z,18.47
2018-04-14T07:28:56.959Z,18.89
2018-04-14T07:29:56.831Z,19.23
2018-04-14T07:30:56.737Z,19.72
2018-04-14T07:31:56.537Z,19.87
2018-04-14T07:32:56.566Z,19.32
2018-04-14T07:33:56.384Z,18.44
2018-04-14T07:34:56.429Z,18.57
2018-04-14T07:35:56.239Z,18.11
2018-04-14T07:36:56.258Z,17.91
2018-04-14T07:37:56.082Z,18.41
2018-04-14T07:38:56.064Z,18.53
2018-04-14T07:39:55.952Z,18.65
2018-04-14T07:40:55.987Z,18.16
2018-04-14T07:41:55.786Z,18.07
2018-04-14T07:42:55.795Z,18.07
2018-04-14T07:43:55.627Z,17.80
2018-04-14T07:44:55.636Z,17.91
2018-04-14T07:45:55.493Z,18.54
2018-04-14T07:46:55.494Z,19.09
2018-04-14T07:47:55.321Z,19.12
2018-04-14T07:48:55.312Z,18.59
2018-04-14T07:49:55.173Z,18.09
2018-04-14T07:50:55.167Z,17.86
2018-04-14T07:51:55.019Z,17.83
2018-04-14T07:52:55.031Z,17.65
2018-04-14T07:53:54.875Z,17.33
2018-04-14T07:54:54.891Z,17.28
2018-04-14T07:55:54.728Z,17.49
2018-04-14T07:56:54.783Z,17.22
2018-04-14T07:57:54.554Z,16.99
2018-04-14T07:58:54.551Z,17.00
2018-04-14T07:59:54.424Z,16.70
2018-04-14T08:00:54.396Z,16.33
2018-04-14T08:01:54.245Z,16.18
2018-04-14T08:02:54.291Z,16.22
2018-04-14T08:03:54.103Z,16.54
2018-04-14T08:04:54.092Z,16.78
2018-04-14T08:05:53.985Z,17.02
2018-04-14T08:06:53.931Z,17.17
2018-04-14T08:07:53.790Z,17.17
2018-04-14T08:08:53.804Z,17.35
2018-04-14T08:09:53.633Z,17.40
2018-04-14T08:10:53.713Z,17.81
2018-04-14T08:11:53.637Z,18.01
2018-04-14T08:12:53.525Z,18.10
2018-04-14T08:13:53.336Z,18.31
2018-04-14T08:14:53.415Z,18.35
2018-04-14T08:15:53.180Z,18.66
2018-04-14T08:16:53.163Z,19.32
2018-04-14T08:17:53.020Z,20.27
2018-04-14T08:18:53.048Z,20.60
2018-04-14T08:19:52.868Z,20.72
2018-04-14T08:20:52.863Z,20.58
2018-04-14T08:21:52.735Z,19.58
2018-04-14T08:22:52.780Z,18.72
2018-04-14T08:23:52.571Z,18.13
2018-04-14T08:24:52.579Z,18.13
2018-04-14T08:25:52.425Z,17.70
2018-04-14T08:26:52.416Z,17.68
2018-04-14T08:27:52.291Z,17.15
2018-04-14T08:28:52.319Z,16.90
2018-04-14T08:29:52.119Z,16.70
2018-04-14T08:30:52.107Z,16.42
2018-04-14T08:31:52.077Z,16.40
2018-04-14T08:32:51.959Z,16.59
2018-04-14T08:33:51.825Z,16.51
2018-04-14T08:34:51.930Z,16.34
2018-04-14T08:35:51.660Z,16.48
2018-04-14T08:36:51.638Z,16.57
2018-04-14T08:37:51.527Z,16.66
2018-04-14T08:38:51.551Z,16.73
2018-04-14T08:39:51.361Z,16.69
2018-04-14T08:40:51.354Z,16.44
2018-04-14T08:41:51.229Z,16.45
2018-04-14T08:42:51.212Z,16.95
2018-04-14T08:43:51.051Z,17.47
2018-04-14T08:44:51.069Z,18.01
2018-04-14T08:45:50.897Z,19.02
2018-04-14T08:46:50.983Z,19.87
2018-04-14T08:47:50.880Z,20.16
2018-04-14T08:48:50.796Z,20.26
2018-04-14T08:49:50.595Z,19.71
2018-04-14T08:50:50.642Z,19.12
2018-04-14T08:51:50.449Z,18.74
2018-04-14T08:52:50.447Z,18.90
2018-04-14T08:53:50.295Z,18.56
2018-04-14T08:54:50.320Z,18.34
2018-04-14T08:55:50.140Z,18.28
2018-04-14T08:56:50.128Z,18.29
2018-04-14T08:57:49.983Z,18.54
2018-04-14T08:58:49.976Z,18.59
2018-04-14T08:59:49.843Z,18.74
2018-04-14T09:00:49.847Z,18.72
2018-04-14T09:01:49.759Z,18.64
2018-04-14T09:02:49.650Z,18.56
2018-04-14T09:03:49.559Z,18.54
2018-04-14T09:04:49.671Z,18.64
2018-04-14T09:05:49.404Z,18.84
2018-04-14T09:06:49.385Z,19.05
2018-04-14T09:07:49.301Z,18.86
2018-04-14T09:08:49.356Z,18.96
2018-04-14T09:09:49.149Z,19.01
2018-04-14T09:10:49.177Z,18.96
2018-04-14T09:11:48.964Z,18.76
2018-04-14T09:12:48.952Z,18.54
2018-04-14T09:13:48.832Z,18.21
2018-04-14T09:14:48.831Z,18.04
2018-04-14T09:15:48.627Z,18.14
2018-04-14T09:18:30.485Z,17.77
2018-04-14T09:19:30.546Z,18.01
2018-04-14T09:20:30.331Z,18.01
2018-04-14T09:21:30.333Z,17.63
2018-04-14T09:22:30.176Z,17.53
2018-04-14T09:23:30.239Z,17.47
2018-04-14T09:24:30.053Z,17.81
2018-04-14T09:25:30.055Z,18.02
2018-04-14T09:26:29.884Z,17.87
2018-04-14T09:27:29.863Z,17.94
2018-04-14T09:28:29.732Z,17.98
2018-04-14T09:29:29.768Z,17.58
2018-04-14T09:30:29.592Z,17.92
2018-04-14T09:31:29.579Z,18.23
2018-04-14T09:32:29.432Z,18.49
2018-04-14T09:33:29.478Z,18.50
2018-04-14T09:34:29.302Z,18.74
2018-04-14T09:35:29.321Z,18.62
2018-04-14T09:36:29.147Z,18.83
2018-04-14T09:37:29.092Z,19.07
2018-04-14T09:38:28.974Z,19.45
2018-04-14T09:39:29.995Z,19.45
2018-04-14T09:40:28.832Z,19.32
2018-04-14T09:41:28.856Z,19.16
2018-04-14T09:42:28.685Z,19.38
2018-04-14T09:43:28.728Z,19.35
2018-04-14T09:44:28.527Z,19.46
2018-04-14T09:45:28.536Z,19.12
2018-04-14T09:46:28.398Z,18.89
2018-04-14T09:47:28.354Z,18.56
2018-04-14T09:48:28.253Z,18.47
2018-04-14T09:49:28.255Z,18.59
2018-04-14T09:50:28.131Z,18.68
2018-04-14T09:51:28.069Z,18.32
2018-04-14T09:52:28.588Z,18.53
2018-04-14T09:53:28.026Z,18.16
2018-04-14T09:54:27.795Z,17.96
2018-04-14T09:55:27.886Z,18.04
2018-04-14T09:56:27.670Z,18.35
2018-04-14T09:57:27.588Z,17.68
2018-04-14T09:58:27.472Z,17.89
2018-04-14T09:59:27.520Z,18.32
2018-04-14T10:00:27.331Z,18.87
2018-04-14T10:01:27.350Z,19.34
2018-04-14T10:02:27.185Z,19.28
2018-04-14T10:03:27.235Z,19.64
2018-04-14T10:04:27.026Z,20.64
2018-04-14T10:05:27.029Z,21.45
2018-04-14T10:06:26.905Z,21.51
2018-04-14T10:07:26.987Z,21.08
2018-04-14T10:08:26.730Z,20.94
2018-04-14T10:09:26.747Z,21.42
2018-04-14T10:10:26.603Z,20.72
2018-04-14T10:11:26.563Z,20.04
2018-04-14T10:12:26.441Z,19.85
2018-04-14T10:13:26.516Z,19.57
2018-04-14T10:14:26.291Z,19.09
2018-04-14T10:15:26.311Z,18.83
2018-04-14T10:16:26.149Z,18.44
2018-04-14T10:17:26.130Z,18.36
2018-04-14T10:18:26.025Z,18.26
2018-04-14T10:19:25.999Z,18.42
2018-04-14T10:20:26.089Z,18.57
2018-04-14T10:21:25.845Z,18.49
2018-04-14T10:22:25.710Z,17.98
2018-04-14T10:23:25.717Z,17.70
2018-04-14T10:24:25.556Z,17.39
2018-04-14T10:25:25.527Z,17.36
2018-04-14T10:26:25.421Z,17.35
2018-04-14T10:27:25.476Z,17.27
2018-04-14T10:28:25.248Z,17.47
2018-04-14T10:29:25.245Z,17.53
2018-04-14T10:30:25.112Z,17.77
2018-04-14T10:31:25.163Z,18.23
2018-04-14T10:32:25.578Z,18.31
2018-04-14T10:33:25.024Z,18.62
2018-04-14T10:34:24.815Z,19.05
2018-04-14T10:35:25.581Z,19.07
2018-04-14T10:36:24.675Z,18.68
2018-04-14T10:37:24.934Z,18.83
2018-04-14T10:38:24.538Z,19.05
2018-04-14T10:39:25.012Z,19.34
2018-04-14T10:40:24.371Z,19.86
2018-04-14T10:41:24.398Z,20.10
2018-04-14T10:42:24.235Z,20.12
2018-04-14T10:43:24.246Z,20.48
2018-04-14T10:44:24.062Z,20.82
2018-04-14T10:45:24.150Z,20.69
2018-04-14T10:46:24.067Z,20.82
2018-04-14T10:47:23.948Z,21.40
2018-04-14T10:48:23.786Z,22.04
2018-04-14T10:49:23.816Z,22.45
2018-04-14T10:50:23.620Z,22.20
2018-04-14T10:51:23.652Z,22.91
2018-04-14T10:52:23.502Z,23.26
2018-04-14T10:53:23.510Z,23.93
2018-04-14T10:54:23.322Z,24.44
2018-04-14T10:55:23.366Z,24.68
2018-04-14T10:56:23.648Z,24.30
2018-04-14T10:57:23.174Z,24.56
2018-04-14T10:58:23.076Z,24.05
2018-04-14T10:59:23.127Z,23.67
2018-04-14T11:00:22.916Z,23.62
2018-04-14T11:01:22.923Z,22.51
2018-04-14T11:02:22.787Z,21.68
2018-04-14T11:03:22.821Z,20.71
2018-04-14T11:04:22.668Z,20.83
2018-04-14T11:05:22.658Z,21.03
2018-04-14T11:06:22.492Z,21.51
2018-04-14T11:07:22.540Z,21.16
2018-04-14T11:08:22.373Z,22.29
2018-04-14T11:09:22.338Z,22.79
2018-04-14T11:10:22.270Z,22.78
2018-04-14T11:11:22.312Z,23.53
2018-04-14T11:12:22.103Z,23.50
2018-04-14T11:13:22.062Z,22.96
2018-04-14T11:14:21.954Z,23.06
2018-04-14T11:15:22.034Z,23.01
2018-04-14T11:16:21.847Z,23.04
2018-04-14T11:19:04.036Z,23.63
2018-04-14T11:20:04.090Z,23.90
2018-04-14T11:21:03.925Z,23.93
2018-04-14T11:22:03.879Z,24.21
2018-04-14T11:23:04.566Z,24.67
2018-04-14T11:24:03.811Z,23.81
2018-04-14T11:25:03.644Z,23.69
2018-04-14T11:26:03.666Z,23.39
2018-04-14T11:27:03.574Z,23.49
2018-04-14T11:28:03.513Z,23.22
2018-04-14T11:29:03.370Z,22.69
2018-04-14T11:30:03.351Z,22.76
2018-04-14T11:31:03.268Z,22.42
2018-04-14T11:32:03.277Z,22.42
2018-04-14T11:33:03.095Z,22.41
2018-04-14T11:34:03.162Z,22.24
2018-04-14T11:35:02.957Z,22.41
2018-04-14T11:36:02.974Z,22.29
2018-04-14T11:37:02.837Z,22.67
2018-04-14T11:38:02.893Z,22.61
2018-04-14T11:39:02.691Z,23.06
2018-04-14T11:40:02.705Z,23.01
2018-04-14T11:41:02.559Z,22.84
2018-04-14T11:42:02.620Z,23.06
2018-04-14T11:43:02.464Z,23.54
2018-04-14T11:44:02.400Z,23.52
2018-04-14T11:45:03.128Z,23.74
2018-04-14T11:46:03.093Z,23.52
2018-04-14T11:47:02.179Z,23.06
2018-04-14T11:48:02.306Z,23.34
2018-04-14T11:49:02.032Z,23.59
2018-04-14T11:50:02.028Z,23.15
2018-04-14T11:51:01.903Z,22.36
2018-04-14T11:52:01.864Z,22.27
2018-04-14T11:53:01.751Z,21.91
2018-04-14T11:54:01.747Z,22.44
2018-04-14T11:55:01.619Z,23.09
2018-04-14T11:56:01.751Z,22.94
2018-04-14T11:57:01.515Z,23.01
2018-04-14T11:58:01.495Z,23.77
2018-04-14T11:59:01.334Z,24.23
2018-04-14T12:00:01.375Z,24.08
2018-04-14T12:01:01.193Z,24.37
2018-04-14T12:02:01.202Z,23.87
2018-04-14T12:03:01.076Z,23.82
2018-04-14T12:04:01.095Z,23.26
2018-04-14T12:05:00.935Z,22.81
2018-04-14T12:06:00.898Z,21.64
2018-04-14T12:07:00.804Z,20.42
2018-04-14T12:08:00.836Z,19.83
2018-04-14T12:09:00.664Z,19.79
2018-04-14T12:10:00.728Z,20.27
2018-04-14T12:11:00.616Z,20.61
2018-04-14T12:12:00.531Z,20.56
2018-04-14T12:13:00.395Z,20.31
2018-04-14T12:14:00.340Z,20.50
2018-04-14T12:15:00.271Z,20.41
2018-04-14T12:16:00.246Z,20.58
2018-04-14T12:17:00.086Z,20.53
2018-04-14T12:18:00.085Z,20.81
2018-04-14T12:19:00.027Z,21.34
2018-04-14T12:19:59.985Z,21.31
2018-04-14T12:20:59.816Z,21.15
2018-04-14T12:21:59.789Z,21.37
2018-04-14T12:22:59.706Z,21.21
2018-04-14T12:23:59.699Z,21.27
2018-04-14T12:24:59.591Z,21.18
2018-04-14T12:25:59.513Z,21.01
2018-04-14T12:26:59.378Z,21.13
2018-04-14T12:27:59.447Z,21.03
2018-04-14T12:28:59.224Z,20.72
2018-04-14T12:29:59.224Z,20.56
2018-04-14T12:30:59.082Z,20.63
2018-04-14T12:31:59.133Z,20.48
2018-04-14T12:32:58.979Z,20.48
2018-04-14T12:33:58.959Z,20.44
2018-04-14T12:34:58.771Z,20.42
2018-04-14T12:35:58.845Z,20.66
2018-04-14T12:36:58.631Z,20.68
2018-04-14T12:37:58.653Z,20.60
2018-04-14T12:38:58.499Z,20.71
2018-04-14T12:39:58.509Z,20.46
2018-04-14T12:40:58.334Z,20.66
2018-04-14T12:41:58.483Z,20.66
2018-04-14T12:42:58.191Z,20.79
2018-04-14T12:43:58.219Z,21.01
2018-04-14T12:44:58.055Z,20.83
2018-04-14T12:45:58.005Z,20.60
2018-04-14T12:46:57.897Z,20.54
2018-04-14T12:47:57.917Z,20.69
2018-04-14T12:48:57.729Z,20.68
2018-04-14T12:49:57.745Z,20.72
2018-04-14T12:50:57.593Z,20.57
2018-04-14T12:51:57.659Z,20.42
2018-04-14T12:52:57.474Z,20.60
2018-04-14T12:53:57.465Z,20.58
2018-04-14T12:54:57.305Z,20.44
2018-04-14T12:55:57.235Z,20.35
2018-04-14T12:56:57.132Z,20.44
2018-04-14T12:57:57.180Z,20.60
2018-04-14T12:58:57.001Z,20.82
2018-04-14T12:59:56.989Z,20.60
2018-04-14T13:00:56.859Z,20.12
2018-04-14T13:01:56.863Z,19.78
2018-04-14T13:02:56.677Z,19.83
2018-04-14T13:03:56.677Z,19.83
2018-04-14T13:04:56.542Z,20.01
2018-04-14T13:05:56.521Z,20.17
2018-04-14T13:06:56.385Z,20.41
2018-04-14T13:07:56.396Z,20.54
2018-04-14T13:08:56.226Z,20.44
2018-04-14T13:09:56.209Z,20.23
2018-04-14T13:10:56.115Z,19.71
2018-04-14T13:11:56.111Z,19.78